createdAt,value
2018-10-09T00:01:40.296Z,99.90
2018-10-09T00:04:09.485Z,99.90
2018-10-09T00:06:38.629Z,99.90
2018-10-09T00:09:08.893Z,99.90
2018-10-09T00:11:38.196Z,99.90
2018-10-09T00:14:07.382Z,99.90
2018-10-09T00:16:36.526Z,99.90
2018-10-09T00:19:05.705Z,99.90
2018-10-09T00:21:34.873Z,99.90
2018-10-09T00:24:04.024Z,99.90
2018-10-09T00:26:33.179Z,99.90
2018-10-09T00:29:02.367Z,99.90
2018-10-09T00:31:32.082Z,99.90
2018-10-09T00:34:04.910Z,99.90
2018-10-09T00:36:34.763Z,99.90
2018-10-09T00:39:05.510Z,99.90
2018-10-09T00:41:35.396Z,99.90
2018-10-09T00:44:04.546Z,99.90
2018-10-09T00:46:33.671Z,99.90
2018-10-09T00:49:02.811Z,99.90
2018-10-09T00:51:32.442Z,99.90
2018-10-09T00:54:01.778Z,99.90
2018-10-09T00:56:31.890Z,99.90
2018-10-09T00:59:01.052Z,99.90
2018-10-09T01:01:30.339Z,99.90
2018-10-09T01:03:59.457Z,99.90
2018-10-09T01:06:28.736Z,99.90
2018-10-09T01:08:58.424Z,99.90
2018-10-09T01:11:27.510Z,99.90
2018-10-09T01:13:56.779Z,99.90
2018-10-09T01:16:25.858Z,99.90
2018-10-09T01:18:55.055Z,99.90
2018-10-09T01:21:24.690Z,99.90
2018-10-09T01:23:53.830Z,99.90
2018-10-09T01:26:22.943Z,99.90
2018-10-09T01:28:52.080Z,99.90
2018-10-09T01:31:21.282Z,99.90
2018-10-09T01:33:50.438Z,99.90
2018-10-09T01:36:19.602Z,99.90
2018-10-09T01:38:48.786Z,99.90
2018-10-09T01:41:18.062Z,99.90
2018-10-09T01:43:47.430Z,99.90
2018-10-09T01:46:16.534Z,99.90
2018-10-09T01:48:46.107Z,99.90
2018-10-09T01:51:15.215Z,99.90
2018-10-09T01:53:44.531Z,99.90
2018-10-09T01:56:13.602Z,99.90
2018-10-09T01:58:42.743Z,99.90
2018-10-09T02:01:11.955Z,99.90
2018-10-09T02:03:41.068Z,99.90
2018-10-09T02:06:10.495Z,99.90
2018-10-09T02:08:39.818Z,99.90
2018-10-09T02:11:10.528Z,99.90
2018-10-09T02:13:39.654Z,99.90
2018-10-09T02:16:08.766Z,99.90
2018-10-09T02:18:37.910Z,99.90
2018-10-09T02:21:07.443Z,99.90
2018-10-09T02:23:36.571Z,99.90
2018-10-09T02:26:05.701Z,99.90
2018-10-09T02:28:34.831Z,99.90
2018-10-09T02:31:03.987Z,99.90
2018-10-09T02:33:33.246Z,99.90
2018-10-09T02:36:02.384Z,99.90
2018-10-09T02:38:31.507Z,99.90
2018-10-09T02:41:00.688Z,99.90
2018-10-09T02:43:29.858Z,99.90
2018-10-09T02:45:58.984Z,99.90
2018-10-09T02:48:28.083Z,99.90
2018-10-09T02:50:57.263Z,99.90
2018-10-09T02:53:26.349Z,99.90
2018-10-09T02:55:55.464Z,99.90
2018-10-09T02:58:24.573Z,99.90
2018-10-09T03:00:53.698Z,99.90
2018-10-09T03:03:22.854Z,99.90
2018-10-09T03:05:52.039Z,99.90
2018-10-09T03:08:21.162Z,99.90
2018-10-09T03:10:50.309Z,99.90
2018-10-09T03:13:19.414Z,99.90
2018-10-09T03:15:48.526Z,99.90
2018-10-09T03:18:18.542Z,99.90
2018-10-09T03:20:48.001Z,99.90
2018-10-09T03:23:16.999Z,99.90
2018-10-09T03:25:46.414Z,99.90
2018-10-09T03:28:16.142Z,99.90
2018-10-09T03:30:45.954Z,99.90
2018-10-09T03:33:15.066Z,99.90
2018-10-09T03:35:44.686Z,99.90
2018-10-09T03:38:13.871Z,99.90
2018-10-09T03:40:43.043Z,99.90
2018-10-09T03:43:12.162Z,99.90
2018-10-09T03:45:41.288Z,99.90
2018-10-09T03:48:10.398Z,99.90
2018-10-09T03:50:39.539Z,99.90
2018-10-09T03:53:08.626Z,99.90
2018-10-09T03:55:37.795Z,99.90
2018-10-09T03:58:07.115Z,99.90
2018-10-09T04:00:36.518Z,99.90
2018-10-09T04:03:05.669Z,99.90
2018-10-09T04:05:34.895Z,99.90
2018-10-09T04:08:03.986Z,99.90
2018-10-09T04:10:33.192Z,99.90
2018-10-09T04:13:02.291Z,99.90
2018-10-09T04:15:31.411Z,99.90
2018-10-09T04:18:00.534Z,99.90
2018-10-09T04:20:29.635Z,99.90
2018-10-09T04:22:58.731Z,99.90
2018-10-09T04:25:27.847Z,99.90
2018-10-09T04:27:56.943Z,99.90
2018-10-09T04:30:26.270Z,99.90
2018-10-09T04:32:55.354Z,99.90
2018-10-09T04:35:24.520Z,99.90
2018-10-09T04:37:53.654Z,99.90
2018-10-09T04:40:23.059Z,99.90
2018-10-09T04:42:52.238Z,99.90
2018-10-09T04:45:21.408Z,99.90
2018-10-09T04:47:50.486Z,99.90
2018-10-09T04:50:19.718Z,99.90
2018-10-09T04:52:49.004Z,99.90
2018-10-09T04:55:18.156Z,99.90
2018-10-09T04:57:47.464Z,99.90
2018-10-09T05:00:17.223Z,99.90
2018-10-09T05:02:46.320Z,99.90
2018-10-09T05:05:15.445Z,99.90
2018-10-09T05:07:44.558Z,99.90
2018-10-09T05:10:13.741Z,99.90
2018-10-09T05:12:44.060Z,99.90
2018-10-09T05:15:13.223Z,99.90
2018-10-09T05:17:42.378Z,99.90
2018-10-09T05:20:11.809Z,99.90
2018-10-09T05:22:41.143Z,99.90
2018-10-09T05:25:10.290Z,99.90
2018-10-09T05:27:39.400Z,99.90
2018-10-09T05:30:08.715Z,99.90
2018-10-09T05:32:37.818Z,99.90
2018-10-09T05:35:06.935Z,99.90
2018-10-09T05:37:36.117Z,99.90
2018-10-09T05:40:05.281Z,99.90
2018-10-09T05:42:34.387Z,99.90
2018-10-09T05:45:03.527Z,99.90
2018-10-09T05:47:32.638Z,99.90
2018-10-09T05:50:01.795Z,99.90
2018-10-09T05:52:31.172Z,99.90
2018-10-09T05:55:00.251Z,99.90
2018-10-09T05:57:29.395Z,99.90
2018-10-09T06:00:00.365Z,99.90
2018-10-09T06:02:29.517Z,99.90
2018-10-09T06:04:58.642Z,99.90
2018-10-09T06:07:27.755Z,99.90
2018-10-09T06:09:56.903Z,99.90
2018-10-09T06:12:26.032Z,99.90
2018-10-09T06:14:55.123Z,99.90
2018-10-09T06:17:24.427Z,99.90
2018-10-09T06:19:54.139Z,99.90
2018-10-09T06:22:23.527Z,99.90
2018-10-09T06:24:52.614Z,99.90
2018-10-09T06:27:21.718Z,99.90
2018-10-09T06:29:50.834Z,99.90
2018-10-09T06:32:20.175Z,99.90
2018-10-09T06:34:49.522Z,99.90
2018-10-09T06:37:18.805Z,99.90
2018-10-09T06:39:48.172Z,99.90
2018-10-09T06:42:17.266Z,99.90
2018-10-09T06:44:46.632Z,99.90
2018-10-09T06:47:15.743Z,99.90
2018-10-09T06:49:45.299Z,99.90
2018-10-09T06:52:14.402Z,99.90
2018-10-09T06:54:43.830Z,99.90
2018-10-09T06:57:12.979Z,99.90
2018-10-09T06:59:42.067Z,99.90
2018-10-09T07:02:11.185Z,99.90
2018-10-09T07:04:40.417Z,99.90
2018-10-09T07:07:09.544Z,99.90
2018-10-09T07:09:38.635Z,99.90
2018-10-09T07:12:07.891Z,99.90
2018-10-09T07:14:37.707Z,99.90
2018-10-09T07:17:07.207Z,99.90
2018-10-09T07:19:36.286Z,99.90
2018-10-09T07:22:05.426Z,99.90
2018-10-09T07:24:34.520Z,99.90
2018-10-09T07:27:03.737Z,99.90
2018-10-09T07:29:32.992Z,99.90
2018-10-09T07:32:02.237Z,99.90
2018-10-09T07:34:31.635Z,99.90
2018-10-09T07:37:00.963Z,99.90
2018-10-09T07:39:30.217Z,99.90
2018-10-09T07:41:59.576Z,99.90
2018-10-09T07:44:28.675Z,99.90
2018-10-09T07:46:57.799Z,99.90
2018-10-09T07:49:27.229Z,99.90
2018-10-09T07:51:56.380Z,99.90
2018-10-09T07:54:25.466Z,99.90
2018-10-09T07:56:54.630Z,99.90
2018-10-09T07:59:23.780Z,99.90
2018-10-09T08:01:52.932Z,99.90
2018-10-09T08:04:22.027Z,99.90
2018-10-09T08:06:51.176Z,99.90
2018-10-09T08:09:20.270Z,99.90
2018-10-09T08:11:49.407Z,99.90
2018-10-09T08:14:18.599Z,99.90
2018-10-09T08:16:48.424Z,99.90
2018-10-09T08:19:17.787Z,99.90
2018-10-09T08:21:46.886Z,99.90
2018-10-09T08:24:16.263Z,99.90
2018-10-09T08:26:45.655Z,99.90
2018-10-09T08:29:14.875Z,99.90
2018-10-09T08:31:44.229Z,99.90
2018-10-09T08:34:13.309Z,99.90
2018-10-09T08:36:42.869Z,99.90
2018-10-09T08:39:12.566Z,99.90
2018-10-09T08:41:41.695Z,99.90
2018-10-09T08:44:10.880Z,99.90
2018-10-09T08:46:40.018Z,99.90
2018-10-09T08:49:09.123Z,99.90
2018-10-09T08:51:38.424Z,99.90
2018-10-09T08:54:07.846Z,99.90
2018-10-09T08:56:37.169Z,99.90
2018-10-09T08:59:06.283Z,99.90
2018-10-09T09:01:35.481Z,99.90
2018-10-09T09:04:04.608Z,99.90
2018-10-09T09:06:33.774Z,99.90
2018-10-09T09:09:03.091Z,99.90
2018-10-09T09:11:32.203Z,99.90
2018-10-09T09:14:01.336Z,99.90
2018-10-09T09:16:30.463Z,99.90
2018-10-09T09:18:59.604Z,99.90
2018-10-09T09:21:28.896Z,99.90
2018-10-09T09:23:58.006Z,99.90
2018-10-09T09:26:27.106Z,99.90
2018-10-09T09:28:56.260Z,99.90
2018-10-09T09:31:25.379Z,99.90
2018-10-09T09:33:54.507Z,99.90
2018-10-09T09:36:23.626Z,99.90
2018-10-09T09:38:52.754Z,99.90
2018-10-09T09:41:22.017Z,99.90
2018-10-09T09:43:51.259Z,99.90
2018-10-09T09:46:20.410Z,99.90
2018-10-09T09:48:49.683Z,99.90
2018-10-09T09:51:18.768Z,99.90
2018-10-09T09:53:47.904Z,99.90
2018-10-09T09:56:16.987Z,99.90
2018-10-09T09:58:46.388Z,99.90
2018-10-09T10:01:15.390Z,99.90
2018-10-09T10:03:45.174Z,99.90
2018-10-09T10:06:14.247Z,99.90
2018-10-09T10:08:43.391Z,99.90
2018-10-09T10:11:12.531Z,99.90
2018-10-09T10:13:41.673Z,99.90
2018-10-09T10:16:10.759Z,99.90
2018-10-09T10:18:39.900Z,99.90
2018-10-09T10:21:09.049Z,99.90
2018-10-09T10:23:38.175Z,99.90
2018-10-09T10:26:07.847Z,99.90
2018-10-09T10:28:37.034Z,99.90
2018-10-09T10:31:06.200Z,99.90
2018-10-09T10:33:35.675Z,99.90
2018-10-09T10:36:04.975Z,99.90
2018-10-09T10:38:34.775Z,99.90
2018-10-09T10:41:03.905Z,99.90
2018-10-09T10:43:33.143Z,99.90
2018-10-09T10:46:02.319Z,99.90
2018-10-09T10:48:31.460Z,99.90
2018-10-09T10:51:00.550Z,99.90
2018-10-09T10:53:29.720Z,99.90
2018-10-09T10:55:58.849Z,99.90
2018-10-09T10:58:27.955Z,99.90
2018-10-09T11:00:57.144Z,99.90
2018-10-09T11:03:27.281Z,99.90
2018-10-09T11:05:56.472Z,99.90
2018-10-09T11:08:25.939Z,99.90
2018-10-09T11:10:55.163Z,99.90
2018-10-09T11:13:24.537Z,99.90
2018-10-09T11:15:53.683Z,99.90
2018-10-09T11:18:22.956Z,99.90
2018-10-09T11:20:52.043Z,99.90
2018-10-09T11:23:21.534Z,99.90
2018-10-09T11:25:50.638Z,99.90
2018-10-09T11:28:19.958Z,99.90
2018-10-09T11:30:49.159Z,99.90
2018-10-09T11:33:18.262Z,99.90
2018-10-09T11:35:47.576Z,99.90
2018-10-09T11:38:16.686Z,99.90
2018-10-09T11:40:45.792Z,99.90
2018-10-09T11:43:15.219Z,98.10
2018-10-09T11:45:44.357Z,98.00
2018-10-09T11:48:13.497Z,95.70
2018-10-09T11:50:42.607Z,96.50
2018-10-09T11:53:11.708Z,93.70
2018-10-09T11:55:40.811Z,91.80
2018-10-09T11:58:09.962Z,91.90
2018-10-09T12:00:41.423Z,87.30
2018-10-09T12:03:10.507Z,82.20
2018-10-09T12:05:41.267Z,79.30
2018-10-09T12:08:10.420Z,76.30
2018-10-09T12:10:40.107Z,72.70
2018-10-09T12:13:09.226Z,67.90
2018-10-09T12:15:38.385Z,67.20
2018-10-09T12:18:07.562Z,71.80
2018-10-09T12:20:36.679Z,75.40
2018-10-09T12:23:05.796Z,72.90
2018-10-09T12:25:34.950Z,73.10
2018-10-09T12:28:04.131Z,67.00
2018-10-09T12:30:33.235Z,67.30
2018-10-09T12:33:02.366Z,65.60
2018-10-09T12:35:31.449Z,63.90
2018-10-09T12:38:00.617Z,63.80
2018-10-09T12:40:29.946Z,61.50
2018-10-09T12:42:59.270Z,60.00
2018-10-09T12:45:28.422Z,63.10
2018-10-09T12:47:58.250Z,62.70
2018-10-09T12:50:27.338Z,60.40
2018-10-09T12:52:56.418Z,59.30
2018-10-09T12:55:25.817Z,57.70
2018-10-09T12:57:55.090Z,54.70
2018-10-09T13:00:24.490Z,55.90
2018-10-09T13:02:54.093Z,57.60
2018-10-09T13:05:23.171Z,54.50
2018-10-09T13:07:52.387Z,55.00
2018-10-09T13:10:21.726Z,53.30
2018-10-09T13:12:50.845Z,53.90
2018-10-09T13:15:20.194Z,53.90
2018-10-09T13:17:49.405Z,54.50
2018-10-09T13:20:18.823Z,54.90
2018-10-09T13:22:48.738Z,55.00
2018-10-09T13:25:17.938Z,56.20
2018-10-09T13:27:47.035Z,59.40
2018-10-09T13:30:16.335Z,63.30
2018-10-09T13:32:45.655Z,63.80
2018-10-09T13:35:14.752Z,62.90
2018-10-09T13:37:43.931Z,68.50
2018-10-09T13:40:13.012Z,68.40
2018-10-09T13:42:42.182Z,71.00
2018-10-09T13:45:11.413Z,68.00
2018-10-09T13:47:40.933Z,76.10
2018-10-09T13:50:10.038Z,82.40
2018-10-09T13:52:39.298Z,81.40
2018-10-09T13:55:08.414Z,77.60
2018-10-09T13:57:38.105Z,83.70
2018-10-09T14:00:07.913Z,82.20
2018-10-09T14:02:37.445Z,80.20
2018-10-09T14:05:06.555Z,83.80
2018-10-09T14:07:35.715Z,84.20
2018-10-09T14:10:04.850Z,83.50
2018-10-09T14:12:34.260Z,83.90
2018-10-09T14:15:03.385Z,88.60
2018-10-09T14:17:32.788Z,85.50
2018-10-09T14:20:01.895Z,86.80
2018-10-09T14:22:31.060Z,88.30
2018-10-09T14:25:00.251Z,87.60
2018-10-09T14:27:29.826Z,91.60
2018-10-09T14:29:58.883Z,91.50
2018-10-09T14:32:28.004Z,93.20
2018-10-09T14:34:57.128Z,93.40
2018-10-09T14:37:26.471Z,93.00
2018-10-09T14:39:55.671Z,94.90
2018-10-09T14:42:24.994Z,95.80
2018-10-09T14:44:54.095Z,96.90
2018-10-09T14:47:23.467Z,97.30
2018-10-09T14:49:52.588Z,96.70
2018-10-09T14:52:22.104Z,97.90
2018-10-09T14:54:51.207Z,98.70
2018-10-09T14:57:20.414Z,98.30
2018-10-09T14:59:49.473Z,99.60
2018-10-09T15:02:19.015Z,99.90
2018-10-09T15:04:48.619Z,99.90
2018-10-09T15:07:18.170Z,99.90
2018-10-09T15:09:48.325Z,99.90
2018-10-09T15:12:17.456Z,99.90
2018-10-09T15:14:46.559Z,99.90
2018-10-09T15:17:15.732Z,99.90
2018-10-09T15:19:44.904Z,99.90
2018-10-09T15:22:14.005Z,99.90
2018-10-09T15:24:43.190Z,99.90
2018-10-09T15:27:12.299Z,99.90
2018-10-09T15:29:41.687Z,99.90
2018-10-09T15:32:10.811Z,99.90
2018-10-09T15:34:40.079Z,99.90
2018-10-09T15:37:09.427Z,99.90
2018-10-09T15:39:38.503Z,99.90
2018-10-09T15:42:08.716Z,99.90
2018-10-09T15:44:37.791Z,99.90
2018-10-09T15:47:07.103Z,99.90
2018-10-09T15:49:36.228Z,99.90
2018-10-09T15:52:05.466Z,99.90
2018-10-09T15:54:34.544Z,99.90
2018-10-09T15:57:03.672Z,99.90
2018-10-09T15:59:32.780Z,99.90
2018-10-09T16:02:01.880Z,99.90
2018-10-09T16:04:30.993Z,99.90
2018-10-09T16:07:00.112Z,99.90
2018-10-09T16:09:29.207Z,99.90
2018-10-09T16:11:58.319Z,99.90
2018-10-09T16:14:27.407Z,99.90
2018-10-09T16:16:56.570Z,99.90
2018-10-09T16:19:25.773Z,99.90
2018-10-09T16:21:54.913Z,99.90
2018-10-09T16:24:24.075Z,99.90
2018-10-09T16:26:53.265Z,99.90
2018-10-09T16:29:22.359Z,99.90
2018-10-09T16:31:51.435Z,99.90
2018-10-09T16:34:20.521Z,99.90
2018-10-09T16:36:49.758Z,99.90
2018-10-09T16:39:18.898Z,99.90
2018-10-09T16:41:48.016Z,99.90
2018-10-09T16:44:17.127Z,99.90
2018-10-09T16:46:46.228Z,99.90
2018-10-09T16:49:15.323Z,99.90
2018-10-09T16:51:44.394Z,99.90
2018-10-09T16:54:13.502Z,99.90
2018-10-09T16:56:42.706Z,99.90
2018-10-09T16:59:11.794Z,99.90
2018-10-09T17:01:40.875Z,99.90
2018-10-09T17:04:10.654Z,99.90
2018-10-09T17:06:39.922Z,99.90
2018-10-09T17:09:10.059Z,99.90
2018-10-09T17:11:39.751Z,99.90
2018-10-09T17:14:08.949Z,99.90
2018-10-09T17:16:38.033Z,99.90
2018-10-09T17:19:07.184Z,99.90
2018-10-09T17:21:36.329Z,99.90
2018-10-09T17:24:05.432Z,99.90
2018-10-09T17:26:34.496Z,99.90
2018-10-09T17:29:03.637Z,99.90
2018-10-09T17:31:32.720Z,99.90
2018-10-09T17:34:01.826Z,99.90
2018-10-09T17:36:31.124Z,99.90
2018-10-09T17:39:00.261Z,99.90
2018-10-09T17:41:29.331Z,99.90
2018-10-09T17:43:58.487Z,99.90
2018-10-09T17:46:27.743Z,99.90
2018-10-09T17:48:56.699Z,99.90
2018-10-09T17:51:25.796Z,99.90
2018-10-09T17:53:54.928Z,99.90
2018-10-09T17:56:24.097Z,99.90
2018-10-09T17:58:53.203Z,99.90
2018-10-09T18:01:22.899Z,99.90
2018-10-09T18:03:52.040Z,99.90
2018-10-09T18:06:21.101Z,99.90
2018-10-09T18:08:50.267Z,99.90
2018-10-09T18:11:19.299Z,99.90
2018-10-09T18:13:48.395Z,99.90
2018-10-09T18:16:17.575Z,99.90
2018-10-09T18:18:46.679Z,99.90
2018-10-09T18:21:15.756Z,99.90
2018-10-09T18:23:44.822Z,99.90
2018-10-09T18:26:14.135Z,99.90
2018-10-09T18:28:43.219Z,99.90
2018-10-09T18:31:12.283Z,99.90
2018-10-09T18:33:41.662Z,99.90
2018-10-09T18:36:10.720Z,99.90
2018-10-09T18:38:39.822Z,99.90
2018-10-09T18:41:09.094Z,99.90
2018-10-09T18:43:38.167Z,99.90
2018-10-09T18:46:07.568Z,99.90
2018-10-09T18:48:37.506Z,99.90
2018-10-09T18:51:08.442Z,99.90
2018-10-09T18:53:37.651Z,99.90
2018-10-09T18:56:08.337Z,99.90
2018-10-09T18:58:40.343Z,99.90
2018-10-09T19:01:11.039Z,99.90
2018-10-09T19:03:42.454Z,99.90
2018-10-09T19:06:12.281Z,99.90
2018-10-09T19:08:41.886Z,99.90
2018-10-09T19:11:13.982Z,99.90
2018-10-09T19:13:44.276Z,99.90
2018-10-09T19:16:15.709Z,99.90
2018-10-09T19:18:46.022Z,99.90
2018-10-09T19:21:15.456Z,99.90
2018-10-09T19:23:44.682Z,99.90
2018-10-09T19:26:14.089Z,99.90
2018-10-09T19:28:43.671Z,99.90
2018-10-09T19:31:12.873Z,99.90
2018-10-09T19:33:43.616Z,99.90
2018-10-09T19:36:12.796Z,99.90
2018-10-09T19:38:42.695Z,99.90
2018-10-09T19:41:12.025Z,99.90
2018-10-09T19:43:41.135Z,99.90
2018-10-09T19:46:11.001Z,99.90
2018-10-09T19:48:41.046Z,99.90
2018-10-09T19:51:11.072Z,99.90
2018-10-09T19:53:40.011Z,99.90
2018-10-09T19:56:09.753Z,99.90
2018-10-09T19:58:38.838Z,99.90
2018-10-09T20:01:08.011Z,99.90
2018-10-09T20:03:37.111Z,99.90
2018-10-09T20:06:06.287Z,99.90
2018-10-09T20:08:35.515Z,99.90
2018-10-09T20:11:04.728Z,99.90
2018-10-09T20:13:33.911Z,99.90
2018-10-09T20:16:03.588Z,99.90
2018-10-09T20:18:32.694Z,99.90
2018-10-09T20:21:01.943Z,99.90
2018-10-09T20:23:31.040Z,99.90
2018-10-09T20:26:00.362Z,99.90
2018-10-09T20:28:29.540Z,99.90
2018-10-09T20:30:59.076Z,99.90
2018-10-09T20:33:28.252Z,99.90
2018-10-09T20:35:57.343Z,99.90
2018-10-09T20:38:26.444Z,99.90
2018-10-09T20:40:55.555Z,99.90
2018-10-09T20:43:24.636Z,99.90
2018-10-09T20:45:53.771Z,99.90
2018-10-09T20:48:22.872Z,99.90
2018-10-09T20:50:52.099Z,99.90
2018-10-09T20:53:21.160Z,99.90
2018-10-09T20:55:50.395Z,99.90
2018-10-09T20:58:19.557Z,99.90
2018-10-09T21:00:48.654Z,99.90
2018-10-09T21:03:17.752Z,99.90
2018-10-09T21:05:47.766Z,99.90
2018-10-09T21:08:16.843Z,99.90
2018-10-09T21:10:45.961Z,99.90
2018-10-09T21:13:15.056Z,99.90
2018-10-09T21:15:44.290Z,99.90
2018-10-09T21:18:13.374Z,99.90
2018-10-09T21:20:42.469Z,99.90
2018-10-09T21:23:11.568Z,99.90
2018-10-09T21:25:40.697Z,99.90
2018-10-09T21:28:09.892Z,99.90
2018-10-09T21:30:39.739Z,99.90
2018-10-09T21:33:09.050Z,99.90
2018-10-09T21:35:38.203Z,99.90
2018-10-09T21:38:07.300Z,99.90
2018-10-09T21:40:36.939Z,99.90
2018-10-09T21:43:06.066Z,99.90
2018-10-09T21:45:35.251Z,99.90
2018-10-09T21:48:05.093Z,99.90
2018-10-09T21:50:34.479Z,99.90
2018-10-09T21:53:03.546Z,99.90
2018-10-09T21:55:32.727Z,99.90
2018-10-09T21:58:01.828Z,99.90
2018-10-09T22:00:35.157Z,99.90
2018-10-09T22:03:04.315Z,99.90
2018-10-09T22:05:33.407Z,99.90
2018-10-09T22:08:02.586Z,99.90
2018-10-09T22:10:31.635Z,99.90
2018-10-09T22:13:00.864Z,99.90
2018-10-09T22:15:29.923Z,99.90
2018-10-09T22:17:59.015Z,99.90
2018-10-09T22:20:28.110Z,99.90
2018-10-09T22:22:57.189Z,99.90
2018-10-09T22:25:26.324Z,99.90
2018-10-09T22:27:55.400Z,99.90
2018-10-09T22:30:24.484Z,99.90
2018-10-09T22:32:54.246Z,99.90
2018-10-09T22:35:23.468Z,99.90
2018-10-09T22:37:52.818Z,99.90
2018-10-09T22:40:21.884Z,99.90
2018-10-09T22:42:51.291Z,99.90
2018-10-09T22:45:21.100Z,99.90
2018-10-09T22:47:50.187Z,99.90
2018-10-09T22:50:19.253Z,99.90
2018-10-09T22:52:48.365Z,99.90
2018-10-09T22:55:17.432Z,99.90
2018-10-09T22:57:46.490Z,99.90
2018-10-09T23:00:15.563Z,99.90
2018-10-09T23:02:44.644Z,99.90
2018-10-09T23:05:14.432Z,99.90
2018-10-09T23:07:43.559Z,99.90
2018-10-09T23:10:12.635Z,99.90
2018-10-09T23:12:41.767Z,99.90
2018-10-09T23:15:10.858Z,99.90
2018-10-09T23:17:39.959Z,99.90
2018-10-09T23:20:09.059Z,99.90
2018-10-09T23:22:38.123Z,99.90
2018-10-09T23:25:07.178Z,99.90
2018-10-09T23:27:36.269Z,99.90
2018-10-09T23:30:05.955Z,99.90
2018-10-09T23:32:35.071Z,99.90
2018-10-09T23:35:04.808Z,99.90
2018-10-09T23:37:34.567Z,99.90
2018-10-09T23:40:03.693Z,99.90
2018-10-09T23:42:32.820Z,99.90
2018-10-09T23:45:01.919Z,99.90
2018-10-09T23:47:31.095Z,99.90
2018-10-09T23:50:00.186Z,99.90
2018-10-09T23:52:29.247Z,99.90
2018-10-09T23:54:58.689Z,99.90
2018-10-09T23:57:27.844Z,99.90
2018-10-09T23:59:56.878Z,99.90
